Time;durP1;ratioP1;P1;durP2;ratioP2;P2;SDS_P1;SDS_P2;PMS_P1;PMS_P2;Temp;Humidity;BMP_temperature;BMP_pressure;BME280_temperature;BME280_humidity;BME280_pressure;Samples;Min_cycle;Max_cycle;Signal;HPM_P1;HPM_P2
2022/04/24 00:01:25;;;;;;;12.70;10.60;;;;;;;7.81;65.70;99159.66;106247;1271;108171;-74
2022/04/24 00:03:57;;;;;;;16.20;9.90;;;;;;;7.78;65.92;99154.23;106291;1271;108672;-75
2022/04/24 00:06:31;;;;;;;12.00;9.70;;;;;;;7.75;65.72;99157.98;106253;1270;138058;-75
2022/04/24 00:09:03;;;;;;;11.60;9.50;;;;;;;7.72;65.79;99154.32;106509;1271;97825;-74
2022/04/24 00:11:35;;;;;;;12.60;9.40;;;;;;;7.70;65.71;99151.10;106359;1271;138172;-75
2022/04/24 00:14:10;;;;;;;11.70;9.50;;;;;;;7.69;66.07;99147.48;106431;1271;107948;-74
2022/04/24 00:16:42;;;;;;;12.70;9.20;;;;;;;7.68;66.00;99141.83;106294;1271;138815;-74
2022/04/24 00:19:18;;;;;;;10.90;8.90;;;;;;;7.68;66.00;99138.73;106372;1271;97805;-74
2022/04/24 00:21:51;;;;;;;9.70;8.40;;;;;;;7.70;66.13;99133.45;106462;1271;97918;-74
2022/04/24 00:24:28;;;;;;;11.50;9.00;;;;;;;7.72;66.03;99133.92;106233;1271;137467;-74
2022/04/24 00:27:00;;;;;;;11.30;8.60;;;;;;;7.74;66.21;99133.98;106390;1271;108918;-74
2022/04/24 00:29:32;;;;;;;11.00;8.40;;;;;;;7.74;66.05;99135.39;106768;1271;139952;-75
2022/04/24 00:32:05;;;;;;;12.10;9.80;;;;;;;7.70;66.10;99129.46;107849;1271;96235;-74
2022/04/24 00:34:37;;;;;;;11.80;9.70;;;;;;;7.67;66.10;99130.09;106659;1271;137625;-75
2022/04/24 00:37:10;;;;;;;10.70;9.30;;;;;;;7.63;66.18;99128.34;106369;1271;111573;-73
2022/04/24 00:39:42;;;;;;;11.20;9.40;;;;;;;7.60;66.13;99132.96;106380;1270;108615;-74
2022/04/24 00:42:14;;;;;;;16.30;11.10;;;;;;;7.57;66.33;99141.91;106180;1271;138518;-73
2022/04/24 00:44:46;;;;;;;14.80;11.50;;;;;;;7.54;66.28;99145.13;106385;1271;98047;-73
2022/04/24 00:47:28;;;;;;;17.10;12.80;;;;;;;7.52;66.39;99153.52;106134;1272;138158;-74
2022/04/24 00:50:00;;;;;;;17.80;13.50;;;;;;;7.50;66.59;99156.67;106388;1271;111835;-74
2022/04/24 00:52:33;;;;;;;18.30;14.00;;;;;;;7.52;66.65;99154.38;106350;1271;140405;-74
2022/04/24 00:55:06;;;;;;;19.70;14.70;;;;;;;7.51;66.64;99151.46;106339;1271;107439;-75
2022/04/24 00:57:39;;;;;;;23.30;18.00;;;;;;;7.49;66.63;99156.38;106410;1271;97828;-72
2022/04/24 01:00:12;;;;;;;26.70;20.30;;;;;;;7.44;66.83;99162.48;107024;1271;137921;-74
2022/04/24 01:02:44;;;;;;;27.90;21.20;;;;;;;7.39;66.72;99156.93;107778;1271;112301;-75
2022/04/24 01:05:18;;;;;;;27.60;20.40;;;;;;;7.36;67.02;99154.95;107136;1271;137880;-75
2022/04/24 01:07:50;;;;;;;31.80;22.50;;;;;;;7.35;67.15;99153.45;106825;1271;108452;-75
2022/04/24 01:10:22;;;;;;;34.10;23.10;;;;;;;7.32;67.26;99155.98;106304;1271;139888;-74
2022/04/24 01:12:54;;;;;;;31.90;23.10;;;;;;;7.26;67.23;99158.08;106446;1271;97859;-74
2022/04/24 01:15:26;;;;;;;37.60;25.30;;;;;;;7.26;67.46;99156.00;106366;1271;110148;-73
2022/04/24 01:17:59;;;;;;;34.40;25.10;;;;;;;7.31;67.70;99156.52;106364;1271;138267;-73
2022/04/24 01:20:31;;;;;;;37.00;26.10;;;;;;;7.29;67.62;99157.65;106312;1271;108831;-73
2022/04/24 01:23:04;;;;;;;35.80;26.00;;;;;;;7.21;67.54;99159.85;106348;1271;137875;-74
2022/04/24 01:25:37;;;;;;;42.70;28.70;;;;;;;7.12;67.68;99158.60;106439;1271;97938;-75
2022/04/24 01:28:11;;;;;;;44.00;29.30;;;;;;;7.07;67.82;99156.52;107778;1271;138468;-75
2022/04/24 01:30:43;;;;;;;37.40;26.90;;;;;;;7.01;67.91;99153.63;107843;1270;108831;-74
2022/04/24 01:33:15;;;;;;;36.20;24.40;;;;;;;6.96;68.00;99148.61;106553;1271;109040;-74
2022/04/24 01:35:47;;;;;;;35.30;24.20;;;;;;;6.96;68.10;99146.53;106233;1271;138781;-74
2022/04/24 01:38:19;;;;;;;33.60;23.80;;;;;;;6.94;68.06;99142.79;106363;1271;97819;-73
2022/04/24 01:40:51;;;;;;;36.90;23.20;;;;;;;6.91;68.16;99145.85;106211;1271;138454;-74
2022/04/24 01:43:24;;;;;;;33.40;23.80;;;;;;;6.91;68.04;99146.19;106360;1271;108886;-74
2022/04/24 01:45:56;;;;;;;33.90;23.00;;;;;;;6.89;68.03;99142.98;106363;1271;108423;-74
2022/04/24 01:48:28;;;;;;;36.50;24.10;;;;;;;6.89;68.12;99146.44;107706;1271;138061;-74
2022/04/24 01:51:00;;;;;;;35.00;23.90;;;;;;;6.89;68.15;99145.23;106760;1269;97698;-74
2022/04/24 01:53:32;;;;;;;36.10;24.40;;;;;;;6.87;67.98;99144.09;106672;1271;137760;-73
2022/04/24 01:56:06;;;;;;;31.00;22.80;;;;;;;6.83;68.02;99144.42;106415;1271;108153;-75
2022/04/24 01:58:39;;;;;;;31.40;22.10;;;;;;;6.83;68.34;99149.44;106574;1271;139312;-74
2022/04/24 02:01:58;;;;;;;29.30;20.10;;;;;;;6.84;68.30;99146.61;106656;1260;98517;-90
2022/04/24 02:04:30;;;;;;;29.60;20.00;;;;;;;6.84;68.24;99146.27;105944;1271;138638;-75
2022/04/24 02:07:02;;;;;;;30.20;20.80;;;;;;;6.88;68.29;99152.89;106844;1272;111483;-74
2022/04/24 02:09:35;;;;;;;31.60;20.90;;;;;;;6.91;68.30;99152.42;106271;1274;108324;-73
2022/04/24 02:12:08;;;;;;;30.10;21.00;;;;;;;6.96;68.31;99151.71;106177;1274;139176;-74
2022/04/24 02:14:40;;;;;;;31.00;20.70;;;;;;;7.02;68.05;99151.36;106403;1274;97821;-74
2022/04/24 02:17:13;;;;;;;30.40;20.40;;;;;;;7.04;68.08;99150.77;106319;1271;137839;-74
2022/04/24 02:19:45;;;;;;;28.90;20.80;;;;;;;7.02;67.88;99151.35;106319;1271;112549;-75
2022/04/24 02:22:17;;;;;;;31.50;21.00;;;;;;;6.99;67.95;99152.30;106057;1274;213497;-74
2022/04/24 02:24:49;;;;;;;30.50;20.40;;;;;;;6.92;67.75;99154.45;106329;1271;108045;-75
2022/04/24 02:27:21;;;;;;;26.50;19.10;;;;;;;6.86;67.80;99155.04;106300;1271;97825;-74
2022/04/24 02:29:53;;;;;;;25.00;18.20;;;;;;;6.81;67.84;99158.30;106221;1271;138352;-75
2022/04/24 02:32:25;;;;;;;24.70;17.90;;;;;;;6.78;68.02;99157.53;106354;1271;110699;-75
2022/04/24 02:34:57;;;;;;;28.50;17.80;;;;;;;6.78;68.17;99160.47;106164;1271;138726;-76
2022/04/24 02:37:32;;;;;;;25.40;17.90;;;;;;;6.79;67.99;99160.27;106459;1269;107609;-74
2022/04/24 02:40:04;;;;;;;27.50;18.50;;;;;;;6.78;67.99;99161.17;106274;1274;97815;-75
2022/04/24 02:42:36;;;;;;;29.20;19.00;;;;;;;6.82;68.15;99162.41;106170;1271;138836;-75
2022/04/24 02:45:10;;;;;;;28.40;19.20;;;;;;;6.83;68.04;99158.75;106470;1271;111399;-75
2022/04/24 02:47:43;;;;;;;29.80;19.80;;;;;;;6.83;67.95;99159.80;106582;1271;138105;-74
2022/04/24 02:50:15;;;;;;;28.30;19.20;;;;;;;6.84;68.05;99157.70;106254;1271;109693;-74
2022/04/24 02:52:52;;;;;;;23.70;17.70;;;;;;;6.81;68.02;99159.67;106619;1271;138700;-74
2022/04/24 02:55:26;;;;;;;28.00;19.00;;;;;;;6.74;67.90;99158.71;106420;1271;98468;-75
2022/04/24 02:57:58;;;;;;;31.00;19.60;;;;;;;6.70;67.96;99158.50;106313;1274;111519;-74
2022/04/24 03:00:39;;;;;;;26.70;18.10;;;;;;;6.70;68.31;99157.82;106204;1271;138909;-75
2022/04/24 03:03:12;;;;;;;26.80;18.50;;;;;;;6.69;68.28;99158.02;106278;1271;108695;-74
2022/04/24 03:05:45;;;;;;;27.50;18.50;;;;;;;6.65;68.39;99156.79;106165;1274;139225;-74
2022/04/24 03:08:23;;;;;;;26.00;18.30;;;;;;;6.67;68.37;99156.02;106290;1274;97870;-74
2022/04/24 03:10:55;;;;;;;28.10;19.20;;;;;;;6.63;68.21;99153.70;106465;1274;138425;-74
2022/04/24 03:13:27;;;;;;;26.90;19.10;;;;;;;6.64;68.37;99148.86;106323;1274;108880;-73
2022/04/24 03:15:59;;;;;;;26.20;17.60;;;;;;;6.62;68.35;99147.20;106271;1274;108316;-73
2022/04/24 03:18:31;;;;;;;28.00;18.20;;;;;;;6.56;68.41;99142.21;106143;1274;138700;-73
2022/04/24 03:21:03;;;;;;;26.70;17.60;;;;;;;6.54;68.59;99140.53;106259;1272;98114;-73
2022/04/24 03:23:35;;;;;;;23.00;16.70;;;;;;;6.51;68.49;99138.58;106208;1274;139313;-73
2022/04/24 03:26:08;;;;;;;27.20;16.60;;;;;;;6.51;68.59;99134.25;106307;1273;109573;-74
2022/04/24 03:28:40;;;;;;;21.20;16.00;;;;;;;6.49;68.97;99135.38;106159;1274;140819;-73
2022/04/24 03:31:13;;;;;;;24.40;15.70;;;;;;;6.48;69.22;99137.99;106347;1274;98440;-74
2022/04/24 03:33:45;;;;;;;23.80;16.30;;;;;;;6.49;68.97;99142.65;106314;1274;97680;-74
2022/04/24 03:36:17;;;;;;;23.00;16.00;;;;;;;6.49;69.16;99147.81;106196;1272;138406;-74
2022/04/24 03:38:49;;;;;;;18.90;14.70;;;;;;;6.51;69.12;99152.23;106306;1274;110115;-75
2022/04/24 03:41:21;;;;;;;24.40;15.70;;;;;;;6.52;69.26;99156.85;106194;1271;138483;-74
2022/04/24 03:43:53;;;;;;;17.60;14.40;;;;;;;6.55;69.14;99156.24;106274;1274;97843;-74
2022/04/24 03:46:25;;;;;;;21.60;15.90;;;;;;;6.57;69.02;99157.55;106211;1274;138232;-74
2022/04/24 03:48:57;;;;;;;21.50;16.10;;;;;;;6.58;69.03;99153.52;106290;1274;111622;-75
2022/04/24 03:51:30;;;;;;;20.30;15.20;;;;;;;6.62;69.02;99154.08;107855;1271;107852;-74
2022/04/24 03:54:02;;;;;;;20.60;16.10;;;;;;;6.66;69.09;99157.77;106485;1273;137862;-76
2022/04/24 03:56:34;;;;;;;24.20;17.00;;;;;;;6.65;68.93;99158.65;106300;1274;97907;-75
2022/04/24 03:59:06;;;;;;;22.70;16.60;;;;;;;6.65;68.97;99154.17;106205;1271;137476;-75
2022/04/24 04:01:39;;;;;;;24.50;16.50;;;;;;;6.67;68.79;99155.16;106311;1271;112085;-74
2022/04/24 04:04:11;;;;;;;24.80;16.30;;;;;;;6.63;68.56;99153.71;106273;1274;108083;-75
2022/04/24 04:06:43;;;;;;;25.00;15.90;;;;;;;6.62;68.53;99149.79;106193;1271;138405;-75
2022/04/24 04:09:15;;;;;;;22.90;16.20;;;;;;;6.61;68.39;99152.73;106274;1274;97896;-73
2022/04/24 04:11:47;;;;;;;21.80;15.30;;;;;;;6.60;68.40;99154.52;106706;1272;138531;-74
2022/04/24 04:14:21;;;;;;;20.10;15.20;;;;;;;6.62;68.55;99155.83;106238;1274;112498;-75
2022/04/24 04:16:54;;;;;;;20.50;15.30;;;;;;;6.65;68.56;99154.02;106222;1272;138932;-74
2022/04/24 04:19:26;;;;;;;23.20;15.40;;;;;;;6.67;68.42;99150.32;106243;1274;108389;-74
2022/04/24 04:21:58;;;;;;;24.60;16.30;;;;;;;6.66;68.31;99149.83;106288;1271;97830;-74
2022/04/24 04:24:30;;;;;;;23.40;16.10;;;;;;;6.65;68.46;99144.17;106218;1272;138397;-74
2022/04/24 04:27:02;;;;;;;22.20;16.50;;;;;;;6.69;68.29;99145.23;106324;1273;112462;-75
2022/04/24 04:29:34;;;;;;;27.80;16.60;;;;;;;6.69;68.19;99149.91;106188;1274;138212;-74
2022/04/24 04:32:07;;;;;;;21.90;15.80;;;;;;;6.66;68.10;99162.27;106311;1274;108087;-73
2022/04/24 04:34:40;;;;;;;20.10;15.10;;;;;;;6.62;68.27;99159.45;106739;1272;138478;-73
2022/04/24 04:37:12;;;;;;;22.10;16.00;;;;;;;6.63;68.30;99164.24;106338;1273;97867;-75
2022/04/24 04:39:44;;;;;;;22.40;15.50;;;;;;;6.66;68.34;99161.23;106330;1274;112585;-74
2022/04/24 04:42:16;;;;;;;25.30;16.20;;;;;;;6.69;68.19;99162.85;106237;1273;138590;-74
2022/04/24 04:44:48;;;;;;;21.20;16.10;;;;;;;6.80;68.33;99158.50;106367;1274;108291;-73
2022/04/24 04:47:20;;;;;;;22.10;15.40;;;;;;;7.56;68.80;99147.77;106210;1273;138186;-75
2022/04/24 04:49:52;;;;;;;22.30;14.60;;;;;;;9.69;67.48;99142.52;106442;1271;97852;-74
2022/04/24 04:52:24;;;;;;;18.60;13.90;;;;;;;11.94;64.44;99135.80;106438;1273;138019;-73
2022/04/24 04:54:56;;;;;;;17.70;13.70;;;;;;;13.93;61.00;99131.89;106649;1274;108716;-75
2022/04/24 04:57:28;;;;;;;16.20;12.70;;;;;;;15.77;57.96;99126.80;106595;1273;107868;-75
2022/04/24 05:00:00;;;;;;;13.90;11.80;;;;;;;17.33;54.89;99121.73;106978;1273;138170;-75
2022/04/24 05:02:35;;;;;;;17.80;11.90;;;;;;;18.81;52.13;99119.98;106357;1273;97816;-75
2022/04/24 05:05:09;;;;;;;14.30;10.30;;;;;;;20.19;49.71;99114.84;106226;1274;140262;-75
2022/04/24 05:07:41;;;;;;;14.40;11.40;;;;;;;21.50;47.37;99115.92;106618;1273;109086;-77
2022/04/24 05:10:14;;;;;;;14.50;12.00;;;;;;;22.60;45.09;99109.13;106391;1274;106280;-75
2022/04/24 05:12:46;;;;;;;16.60;11.70;;;;;;;23.71;43.21;99105.53;106824;1271;138530;-74
2022/04/24 05:15:20;;;;;;;13.00;10.80;;;;;;;24.69;40.98;99107.27;106409;1273;98321;-73
2022/04/24 05:17:52;;;;;;;14.00;10.40;;;;;;;25.45;39.29;99104.04;106423;1274;138643;-75
2022/04/24 05:20:24;;;;;;;15.80;10.80;;;;;;;26.13;37.87;99099.67;106303;1273;108968;-74
2022/04/24 05:23:05;;;;;;;13.20;10.20;;;;;;;26.96;36.58;99097.80;106319;1274;138248;-74
2022/04/24 05:25:38;;;;;;;11.70;10.50;;;;;;;27.71;35.20;99087.06;106759;1273;97790;-75
2022/04/24 05:28:10;;;;;;;13.50;9.60;;;;;;;28.59;34.58;99083.92;106544;1271;97806;-75
2022/04/24 05:30:42;;;;;;;13.10;9.20;;;;;;;29.31;33.07;99090.02;106142;1274;139519;-75
2022/04/24 05:33:19;;;;;;;12.70;9.20;;;;;;;29.69;31.83;99094.41;106451;1273;108091;-75
2022/04/24 05:35:52;;;;;;;12.20;10.10;;;;;;;30.47;31.37;99092.52;106405;1272;137897;-75
2022/04/24 05:38:25;;;;;;;10.70;9.20;;;;;;;31.25;30.57;99093.55;106423;1273;98715;-74
2022/04/24 05:40:57;;;;;;;11.50;9.10;;;;;;;31.82;29.02;99091.05;106202;1273;137957;-74
2022/04/24 05:43:29;;;;;;;10.50;9.00;;;;;;;32.22;28.43;99088.52;106387;1273;112296;-75
2022/04/24 05:46:01;;;;;;;9.30;8.30;;;;;;;32.73;27.54;99096.91;106390;1273;108882;-75
2022/04/24 05:48:34;;;;;;;13.00;9.10;;;;;;;33.16;26.63;99102.95;106797;1273;137632;-75
2022/04/24 05:51:05;;;;;;;12.50;9.30;;;;;;;33.30;25.99;99109.62;106603;1273;97854;-75
2022/04/24 05:53:37;;;;;;;10.50;7.90;;;;;;;33.67;25.83;99114.97;106377;1274;137824;-75
2022/04/24 05:56:09;;;;;;;15.60;9.40;;;;;;;34.29;25.21;99108.21;106358;1273;112504;-75
2022/04/24 05:58:41;;;;;;;10.90;8.60;;;;;;;34.38;24.64;99113.34;106356;1273;137963;-75
2022/04/24 06:01:13;;;;;;;9.60;8.60;;;;;;;34.50;24.10;99116.21;106297;1273;108883;-74
2022/04/24 06:03:46;;;;;;;10.60;9.00;;;;;;;34.54;23.57;99120.70;106336;1273;97871;-73
2022/04/24 06:06:18;;;;;;;11.70;8.90;;;;;;;34.54;23.39;99123.44;106146;1273;139231;-75
2022/04/24 06:08:50;;;;;;;9.60;8.10;;;;;;;34.36;22.64;99118.48;106250;1273;113018;-74
2022/04/24 06:11:22;;;;;;;11.00;8.10;;;;;;;34.27;22.88;99115.46;106099;1274;138110;-74
2022/04/24 06:13:54;;;;;;;9.90;8.30;;;;;;;34.43;22.63;99114.93;106344;1271;107722;-76
2022/04/24 06:16:26;;;;;;;12.30;8.20;;;;;;;34.69;22.37;99114.20;106217;1273;139008;-76
2022/04/24 06:18:58;;;;;;;10.10;8.80;;;;;;;34.96;22.25;99121.12;106290;1273;97835;-75
2022/04/24 06:21:30;;;;;;;12.10;8.10;;;;;;;35.32;21.92;99123.86;106258;1273;112118;-75
2022/04/24 06:24:03;;;;;;;11.30;8.40;;;;;;;35.71;21.76;99118.70;106159;1274;137894;-75
2022/04/24 06:26:35;;;;;;;9.40;8.20;;;;;;;35.95;21.28;99117.10;106277;1274;108630;-75
2022/04/24 06:29:06;;;;;;;9.30;7.80;;;;;;;35.87;20.80;99117.35;106186;1273;138268;-75
2022/04/24 06:31:39;;;;;;;9.40;7.50;;;;;;;35.99;20.88;99116.05;106332;1272;98222;-76
2022/04/24 06:34:11;;;;;;;8.90;7.30;;;;;;;36.18;20.71;99115.68;106278;1273;112407;-76
2022/04/24 06:36:43;;;;;;;8.50;7.60;;;;;;;35.76;20.36;99120.48;106208;1272;137732;-75
2022/04/24 06:39:15;;;;;;;8.90;7.60;;;;;;;35.27;20.67;99120.70;106256;1273;108246;-75
2022/04/24 06:41:47;;;;;;;9.60;7.40;;;;;;;34.94;20.56;99117.77;106180;1273;137779;-75
2022/04/24 06:44:25;;;;;;;8.40;7.20;;;;;;;33.63;20.48;99122.64;106300;1273;97928;-75
2022/04/24 06:46:57;;;;;;;7.90;7.00;;;;;;;31.67;21.24;99129.15;106209;1273;137711;-74
2022/04/24 06:49:29;;;;;;;11.30;7.20;;;;;;;29.71;22.61;99130.48;106301;1271;109226;-74
2022/04/24 06:52:01;;;;;;;9.80;7.40;;;;;;;27.77;23.50;99135.95;106393;1271;108773;-75
2022/04/24 06:54:33;;;;;;;10.20;8.30;;;;;;;25.92;25.10;99131.64;106164;1271;137689;-75
2022/04/24 06:57:06;;;;;;;9.60;7.70;;;;;;;24.17;26.39;99137.20;106314;1274;97898;-74
2022/04/24 06:59:38;;;;;;;9.50;8.60;;;;;;;22.80;28.15;99143.45;106347;1273;137523;-74
2022/04/24 07:02:10;;;;;;;9.50;8.20;;;;;;;21.81;29.49;99151.91;106293;1273;108826;-74
2022/04/24 07:04:42;;;;;;;12.10;8.80;;;;;;;21.00;30.69;99162.02;106454;1273;138103;-74
2022/04/24 07:07:14;;;;;;;12.10;9.30;;;;;;;20.36;31.95;99172.46;106319;1271;98709;-74
2022/04/24 07:09:46;;;;;;;11.40;9.70;;;;;;;19.95;32.77;99173.95;106318;1273;97813;-75
2022/04/24 07:12:18;;;;;;;10.50;9.00;;;;;;;19.34;33.21;99178.92;106340;1272;137858;-75
2022/04/24 07:14:50;;;;;;;12.20;9.80;;;;;;;18.62;34.14;99178.55;106345;1273;109139;-75
2022/04/24 07:17:22;;;;;;;9.90;8.30;;;;;;;18.26;35.20;99185.02;106139;1273;138381;-74
2022/04/24 07:19:54;;;;;;;9.40;8.20;;;;;;;18.51;35.44;99177.35;106655;1273;97841;-75
2022/04/24 07:22:26;;;;;;;9.90;8.50;;;;;;;18.53;35.57;99172.59;106183;1273;137791;-74
2022/04/24 07:24:58;;;;;;;10.00;8.70;;;;;;;19.00;35.93;99173.81;106375;1273;111338;-74
2022/04/24 07:27:31;;;;;;;9.80;8.80;;;;;;;19.61;35.47;99168.65;106339;1273;108534;-74
2022/04/24 07:30:13;;;;;;;10.20;8.50;;;;;;;19.93;34.80;99169.91;106240;1273;137810;-74
2022/04/24 07:32:49;;;;;;;11.60;9.10;;;;;;;19.72;34.89;99178.14;106307;1273;97918;-74
2022/04/24 07:35:23;;;;;;;11.10;8.70;;;;;;;19.33;34.98;99184.11;106203;1273;138546;-73
2022/04/24 07:37:55;;;;;;;11.40;8.50;;;;;;;18.92;35.53;99185.41;106255;1273;111960;-74
2022/04/24 07:40:30;;;;;;;11.30;8.80;;;;;;;18.75;36.06;99177.90;106195;1273;140116;-75
2022/04/24 07:43:04;;;;;;;9.50;8.30;;;;;;;19.43;36.35;99174.78;106262;1273;109562;-75
2022/04/24 07:45:37;;;;;;;8.70;7.80;;;;;;;21.24;35.28;99165.08;106465;1273;97947;-75
2022/04/24 07:48:11;;;;;;;9.40;7.20;;;;;;;23.11;33.64;99164.20;106169;1274;137770;-74
2022/04/24 07:50:44;;;;;;;8.70;7.60;;;;;;;24.88;31.99;99159.80;106353;1272;112837;-75
2022/04/24 07:53:18;;;;;;;9.70;7.60;;;;;;;26.55;30.38;99157.92;106166;1273;137808;-73
2022/04/24 07:55:51;;;;;;;7.70;6.90;;;;;;;27.82;28.79;99151.63;106293;1274;108898;-75
2022/04/24 07:58:23;;;;;;;6.40;5.70;;;;;;;28.82;27.65;99144.42;106309;1272;97829;-75
2022/04/24 08:00:55;;;;;;;6.60;5.90;;;;;;;30.03;26.99;99144.41;106208;1271;137580;-75
2022/04/24 08:03:27;;;;;;;6.90;6.20;;;;;;;31.37;26.24;99147.86;106287;1273;112116;-75
2022/04/24 08:05:59;;;;;;;5.80;5.10;;;;;;;32.35;24.93;99149.02;106277;1273;137760;-75
2022/04/24 08:08:31;;;;;;;6.10;5.50;;;;;;;33.06;24.16;99149.02;106298;1273;108820;-74
2022/04/24 08:11:03;;;;;;;6.20;5.10;;;;;;;33.57;23.05;99148.57;106140;1273;138776;-74
2022/04/24 08:13:35;;;;;;;5.30;4.70;;;;;;;33.97;22.79;99150.84;106289;1273;97811;-75
2022/04/24 08:16:08;;;;;;;8.10;5.60;;;;;;;33.43;22.31;99148.33;106319;1273;112452;-75
2022/04/24 08:18:40;;;;;;;4.80;4.30;;;;;;;32.58;22.32;99143.44;106474;1273;137931;-75
2022/04/24 08:21:13;;;;;;;6.10;4.70;;;;;;;31.99;22.38;99148.52;106392;1273;108813;-75
2022/04/24 08:23:45;;;;;;;5.60;4.80;;;;;;;32.20;22.60;99139.71;106141;1273;139238;-77
2022/04/24 08:26:18;;;;;;;6.40;5.50;;;;;;;31.76;22.45;99142.63;106375;1274;97838;-75
2022/04/24 08:28:51;;;;;;;7.90;5.20;;;;;;;31.48;22.36;99139.41;106148;1273;137908;-74
2022/04/24 08:31:23;;;;;;;7.60;6.50;;;;;;;30.99;22.29;99141.52;106380;1274;108864;-74
2022/04/24 08:33:57;;;;;;;7.40;6.20;;;;;;;30.15;22.66;99139.18;106300;1273;108810;-75
2022/04/24 08:36:29;;;;;;;8.00;5.70;;;;;;;29.39;23.13;99144.53;106239;1273;137882;-76
2022/04/24 08:39:01;;;;;;;6.70;5.40;;;;;;;29.64;23.98;99138.13;106308;1273;97864;-75
2022/04/24 08:41:36;;;;;;;6.80;5.00;;;;;;;30.37;23.54;99130.07;106242;1273;137665;-76
2022/04/24 08:44:10;;;;;;;5.50;4.50;;;;;;;30.45;22.72;99131.13;106279;1273;107603;-74
2022/04/24 08:46:44;;;;;;;6.90;4.30;;;;;;;30.65;23.21;99131.64;107006;1273;138082;-74
2022/04/24 08:49:17;;;;;;;5.10;4.60;;;;;;;30.72;23.13;99127.88;106433;1271;97864;-76
2022/04/24 08:51:50;;;;;;;5.50;5.00;;;;;;;30.84;23.10;99130.52;106355;1274;97823;-75
2022/04/24 08:54:23;;;;;;;8.40;5.10;;;;;;;30.63;22.67;99122.48;106172;1272;138295;-76
2022/04/24 08:56:56;;;;;;;5.50;4.90;;;;;;;30.19;22.92;99120.85;106293;1273;109020;-75
2022/04/24 08:59:28;;;;;;;5.80;4.20;;;;;;;30.06;23.15;99123.16;106145;1273;137684;-77
2022/04/24 09:02:01;;;;;;;4.40;4.00;;;;;;;29.79;23.11;99123.19;106218;1272;97851;-75
2022/04/24 09:04:35;;;;;;;5.80;4.20;;;;;;;29.82;23.57;99124.98;107086;1273;96447;-74
2022/04/24 09:07:10;;;;;;;4.60;4.20;;;;;;;30.15;23.73;99117.60;106218;1273;137449;-75
2022/04/24 09:09:44;;;;;;;5.20;4.00;;;;;;;30.29;23.28;99112.05;106239;1273;108386;-75
2022/04/24 09:12:18;;;;;;;4.80;4.30;;;;;;;30.12;23.03;99111.94;106701;1273;137849;-76
2022/04/24 09:14:54;;;;;;;5.00;4.50;;;;;;;29.64;23.04;99115.64;106478;1274;97851;-76
2022/04/24 09:17:28;;;;;;;4.40;4.00;;;;;;;29.36;23.30;99118.02;106456;1273;137913;-75
2022/04/24 09:20:00;;;;;;;3.80;3.40;;;;;;;29.58;23.33;99117.89;106293;1273;112597;-76
2022/04/24 09:22:39;;;;;;;3.60;3.30;;;;;;;29.54;23.22;99120.31;106384;1274;106756;-75
2022/04/24 09:25:12;;;;;;;3.60;3.30;;;;;;;29.16;23.48;99120.41;106223;1273;137659;-77
2022/04/24 09:27:44;;;;;;;3.70;3.40;;;;;;;29.36;23.92;99120.64;106374;1273;97834;-76
2022/04/24 09:30:17;;;;;;;4.00;3.30;;;;;;;29.74;23.66;99124.00;106197;1273;138087;-74
2022/04/24 09:32:51;;;;;;;3.30;3.00;;;;;;;29.97;23.50;99116.24;106323;1273;110412;-75
2022/04/24 09:35:29;;;;;;;3.90;3.50;;;;;;;30.06;22.64;99111.84;106194;1273;138970;-74
2022/04/24 09:38:13;;;;;;;4.30;2.90;;;;;;;30.16;22.68;99111.58;106374;1273;107509;-76
2022/04/24 09:40:47;;;;;;;3.60;2.80;;;;;;;29.80;22.28;99109.68;107045;1273;97855;-75
2022/04/24 09:43:20;;;;;;;3.60;3.20;;;;;;;28.67;21.51;99112.70;106290;1273;137512;-76
2022/04/24 09:45:54;;;;;;;3.10;2.90;;;;;;;27.21;22.78;99117.91;106340;1271;111390;-76
2022/04/24 09:48:27;;;;;;;4.90;3.20;;;;;;;26.22;23.74;99120.55;106257;1273;137673;-77
2022/04/24 09:51:01;;;;;;;2.90;2.70;;;;;;;25.51;24.52;99127.17;106265;1273;108801;-76
2022/04/24 09:53:41;;;;;;;3.70;3.40;;;;;;;24.90;25.37;99133.61;106161;1273;138024;-77
2022/04/24 09:56:14;;;;;;;3.50;3.20;;;;;;;24.18;26.28;99134.88;106080;1273;97704;-77
2022/04/24 09:58:47;;;;;;;3.20;2.90;;;;;;;23.62;27.14;99143.02;106362;1273;110263;-76
2022/04/24 10:01:22;;;;;;;4.00;3.30;;;;;;;23.11;27.65;99151.88;106218;1273;138499;-77
2022/04/24 10:03:54;;;;;;;3.30;3.00;;;;;;;22.44;27.79;99148.29;106324;1272;108501;-77
2022/04/24 10:06:27;;;;;;;3.30;3.00;;;;;;;21.72;28.46;99152.05;106291;1271;137706;-77
2022/04/24 10:09:01;;;;;;;3.60;3.20;;;;;;;21.20;29.25;99159.60;106334;1273;97890;-77
2022/04/24 10:11:33;;;;;;;4.20;3.80;;;;;;;20.76;29.90;99159.63;106163;1273;137779;-77
2022/04/24 10:14:09;;;;;;;3.90;3.40;;;;;;;20.43;30.59;99160.55;106351;1271;107351;-76
2022/04/24 10:17:01;;;;;;;5.80;3.90;;;;;;;20.17;31.36;99158.22;106410;1274;108601;-78
2022/04/24 10:19:46;;;;;;;5.30;3.50;;;;;;;20.01;31.57;99159.70;106298;1274;137599;-76
2022/04/24 10:22:32;;;;;;;3.50;3.20;;;;;;;19.85;31.66;99162.69;106532;1272;97797;-76
2022/04/24 10:25:06;;;;;;;4.00;3.50;;;;;;;19.76;32.09;99165.42;106219;1273;137586;-76
2022/04/24 10:27:45;;;;;;;4.90;3.30;;;;;;;19.73;32.30;99164.40;106452;1272;107898;-77
2022/04/24 10:30:24;;;;;;;4.40;3.00;;;;;;;19.73;32.49;99164.06;106164;1273;137834;-77
2022/04/24 10:33:17;;;;;;;5.00;2.90;;;;;;;19.66;32.49;99167.73;106327;1274;97843;-77
2022/04/24 10:35:52;;;;;;;3.10;2.80;;;;;;;19.61;32.48;99162.69;106332;1273;137846;-77
2022/04/24 10:38:24;;;;;;;3.40;3.10;;;;;;;19.44;32.63;99163.27;106279;1273;112464;-77
2022/04/24 10:41:01;;;;;;;3.20;2.80;;;;;;;19.29;32.89;99162.06;106289;1273;108303;-77
2022/04/24 10:43:42;;;;;;;4.60;3.20;;;;;;;19.18;33.47;99158.93;106102;1273;138680;-77
2022/04/24 10:46:22;;;;;;;4.70;3.00;;;;;;;19.08;33.63;99158.02;106303;1271;97934;-77
2022/04/24 10:48:55;;;;;;;3.20;2.90;;;;;;;18.96;33.59;99157.98;106522;1273;137563;-77
2022/04/24 10:51:32;;;;;;;3.70;3.00;;;;;;;18.90;33.87;99154.09;106331;1272;112175;-78
2022/04/24 10:54:08;;;;;;;3.30;2.90;;;;;;;18.94;34.35;99153.70;106206;1273;137861;-77
2022/04/24 10:56:42;;;;;;;5.60;3.50;;;;;;;18.98;34.09;99155.70;106332;1272;109059;-77
2022/04/24 10:59:18;;;;;;;3.90;3.30;;;;;;;19.06;34.30;99149.40;106229;1272;137913;-75
2022/04/24 11:01:52;;;;;;;3.40;3.10;;;;;;;19.11;34.04;99151.91;106352;1273;97844;-79
2022/04/24 11:04:26;;;;;;;3.30;3.00;;;;;;;19.15;33.77;99150.68;106433;1272;112500;-78
2022/04/24 11:06:59;;;;;;;3.30;3.00;;;;;;;19.20;33.96;99149.38;106176;1273;137903;-77
2022/04/24 11:09:35;;;;;;;3.70;2.90;;;;;;;19.24;33.48;99148.54;106324;1271;107846;-77
2022/04/24 11:12:11;;;;;;;4.10;3.10;;;;;;;19.06;33.32;99146.20;106355;1273;137812;-77
2022/04/24 11:14:43;;;;;;;3.30;3.00;;;;;;;18.91;33.66;99149.27;106300;1273;97818;-77
2022/04/24 11:17:15;;;;;;;6.10;4.70;;;;;;;19.23;34.40;99146.13;106328;1271;137982;-78
2022/04/24 11:19:47;;;;;;;4.20;2.80;;;;;;;19.85;34.00;99138.50;106454;1274;107581;-77
2022/04/24 11:22:20;;;;;;;3.20;2.80;;;;;;;20.32;33.43;99135.35;106361;1273;109394;-76
2022/04/24 11:24:57;;;;;;;3.40;3.10;;;;;;;20.68;32.80;99131.89;106237;1273;137775;-77
2022/04/24 11:27:29;;;;;;;4.10;3.10;;;;;;;20.90;32.35;99131.16;107594;1273;95741;-78
2022/04/24 11:30:01;;;;;;;3.50;2.90;;;;;;;21.25;32.67;99131.98;106680;1273;137722;-77
2022/04/24 11:32:33;;;;;;;5.30;3.50;;;;;;;21.73;32.22;99127.41;106345;1273;108863;-77
2022/04/24 11:35:09;;;;;;;3.20;2.90;;;;;;;21.97;31.89;99127.92;106709;1273;108781;-78
2022/04/24 11:37:45;;;;;;;3.30;3.00;;;;;;;22.07;31.32;99126.05;106430;1273;138309;-77
2022/04/24 11:40:17;;;;;;;4.70;2.70;;;;;;;22.10;30.99;99118.33;106303;1273;97857;-77
2022/04/24 11:43:09;;;;;;;4.80;3.10;;;;;;;22.32;30.80;99114.95;106191;1273;137717;-78